Time,TemperatureF,DewpointF,PressureIn,WindDirection,WindDirectionDegrees,WindSpeedMPH,WindSpeedGustMPH,Humidity,HourlyPrecipIn,Conditions,Clouds,dailyrainin,SoftwareType,DateUTC
2013-02-28 00:01:00,50.0,-99.9,30.29,South,170,23.0,27.0,-999,-99.99,,,-99.99,,2013-02-28 08:01:00,
2013-02-28 00:12:00,50.0,-99.9,30.30,South,173,23.0,28.0,-999,-99.99,,,-99.99,,2013-02-28 08:12:00,
2013-02-28 00:22:00,50.0,-99.9,30.30,South,175,23.0,29.0,-999,-99.99,,,-99.99,,2013-02-28 08:22:00,
2013-02-28 00:32:00,50.0,-99.9,30.30,South,172,25.0,30.0,-999,-99.99,,,-99.99,,2013-02-28 08:32:00,
2013-02-28 00:42:00,50.0,-99.9,30.29,SSE,168,26.0,31.0,-999,-99.99,,,-99.99,,2013-02-28 08:42:00,
2013-02-28 00:53:00,50.0,-99.9,30.30,SSE,168,26.0,30.0,-999,-99.99,,,-99.99,,2013-02-28 08:53:00,
2013-02-28 01:04:00,50.0,-99.9,30.31,South,170,24.0,28.0,-999,-99.99,,,-99.99,,2013-02-28 09:04:00,
2013-02-28 01:12:00,50.0,-99.9,30.31,South,170,25.0,28.0,-999,-99.99,,,-99.99,,2013-02-28 09:12:00,
2013-02-28 01:22:00,50.0,-99.9,30.31,South,170,25.0,32.0,-999,-99.99,,,-99.99,,2013-02-28 09:22:00,
2013-02-28 01:32:00,50.0,-99.9,30.31,SSE,164,22.0,27.0,-999,-99.99,,,-99.99,,2013-02-28 09:32:00,
2013-02-28 01:42:00,50.0,-99.9,30.31,SSE,163,21.0,26.0,-999,-99.99,,,-99.99,,2013-02-28 09:42:00,
2013-02-28 01:53:00,50.0,-99.9,30.32,SSE,164,24.0,28.0,-999,-99.99,,,-99.99,,2013-02-28 09:53:00,
2013-02-28 02:02:00,50.0,-99.9,30.32,SSE,166,24.0,29.0,-999,-99.99,,,-99.99,,2013-02-28 10:02:00,
2013-02-28 02:12:00,50.0,-99.9,30.32,SSE,164,23.0,29.0,-999,-99.99,,,-99.99,,2013-02-28 10:12:00,
2013-02-28 02:22:00,50.0,-99.9,30.32,SSE,162,20.0,26.0,-999,-99.99,,,-99.99,,2013-02-28 10:22:00,
2013-02-28 02:32:00,50.0,-99.9,30.32,SSE,165,22.0,27.0,-999,-99.99,,,-99.99,,2013-02-28 10:32:00,
2013-02-28 02:42:00,50.0,-99.9,30.32,SSE,165,21.0,26.0,-999,-99.99,,,-99.99,,2013-02-28 10:42:00,
2013-02-28 02:52:00,50.0,-99.9,30.32,SSE,168,21.0,25.0,-999,-99.99,,,-99.99,,2013-02-28 10:52:00,
2013-02-28 03:02:00,50.0,-99.9,30.32,SSE,168,21.0,25.0,-999,-99.99,,,-99.99,,2013-02-28 11:02:00,
2013-02-28 03:11:00,50.0,-99.9,30.32,SSE,167,22.0,26.0,-999,-99.99,,,-99.99,,2013-02-28 11:11:00,
2013-02-28 03:22:00,50.0,-99.9,30.32,SSE,166,18.0,22.0,-999,-99.99,,,-99.99,,2013-02-28 11:22:00,
2013-02-28 03:32:00,50.0,-99.9,30.32,SSE,164,17.0,22.0,-999,-99.99,,,-99.99,,2013-02-28 11:32:00,
2013-02-28 03:42:00,50.0,-99.9,30.32,SSE,163,19.0,22.0,-999,-99.99,,,-99.99,,2013-02-28 11:42:00,
2013-02-28 03:53:00,50.0,-99.9,30.32,SSE,164,20.0,22.0,-999,-99.99,,,-99.99,,2013-02-28 11:53:00,
2013-02-28 04:02:00,50.0,-99.9,30.33,SSE,167,18.0,22.0,-999,-99.99,,,-99.99,,2013-02-28 12:02:00,
2013-02-28 04:12:00,50.0,-99.9,30.33,SSE,163,17.0,20.0,-999,-99.99,,,-99.99,,2013-02-28 12:12:00,
2013-02-28 04:22:00,50.0,-99.9,30.33,SSE,165,17.0,23.0,-999,-99.99,,,-99.99,,2013-02-28 12:22:00,
2013-02-28 04:32:00,50.0,-99.9,30.32,SSE,163,20.0,24.0,-999,-99.99,,,-99.99,,2013-02-28 12:32:00,
2013-02-28 04:42:00,50.0,-99.9,30.33,SSE,165,19.0,26.0,-999,-99.99,,,-99.99,,2013-02-28 12:42:00,
2013-02-28 04:53:00,50.0,-99.9,30.33,SSE,168,19.0,26.0,-999,-99.99,,,-99.99,,2013-02-28 12:53:00,
2013-02-28 05:02:00,50.0,-99.9,30.33,SSE,168,19.0,23.0,-999,-99.99,,,-99.99,,2013-02-28 13:02:00,
2013-02-28 05:12:00,50.0,-99.9,30.34,SSE,167,20.0,24.0,-999,-99.99,,,-99.99,,2013-02-28 13:12:00,
2013-02-28 05:22:00,50.0,-99.9,30.34,South,169,20.0,24.0,-999,-99.99,,,-99.99,,2013-02-28 13:22:00,
2013-02-28 05:32:00,50.0,-99.9,30.34,SSE,168,19.0,23.0,-999,-99.99,,,-99.99,,2013-02-28 13:32:00,
2013-02-28 05:42:00,50.0,-99.9,30.35,SSE,168,19.0,24.0,-999,-99.99,,,-99.99,,2013-02-28 13:42:00,
2013-02-28 05:52:00,50.0,-99.9,30.35,South,169,21.0,25.0,-999,-99.99,,,-99.99,,2013-02-28 13:52:00,
2013-02-28 06:02:00,49.0,-99.9,30.35,SSE,165,21.0,27.0,-999,-99.99,,,-99.99,,2013-02-28 14:02:00,
2013-02-28 06:12:00,50.0,-99.9,30.35,SSE,164,23.0,26.0,-999,-99.99,,,-99.99,,2013-02-28 14:12:00,
2013-02-28 06:22:00,49.0,-99.9,30.35,SSE,162,20.0,26.0,-999,-99.99,,,-99.99,,2013-02-28 14:22:00,
2013-02-28 06:32:00,49.0,-99.9,30.35,SSE,163,19.0,26.0,-999,-99.99,,,-99.99,,2013-02-28 14:32:00,
2013-02-28 06:42:00,49.0,-99.9,30.36,SSE,166,21.0,24.0,-999,-99.99,,,-99.99,,2013-02-28 14:42:00,
2013-02-28 06:52:00,49.0,-99.9,30.36,SSE,168,19.0,23.0,-999,-99.99,,,-99.99,,2013-02-28 14:52:00,
2013-02-28 07:02:00,49.0,-99.9,30.36,South,170,18.0,22.0,-999,-99.99,,,-99.99,,2013-02-28 15:02:00,
2013-02-28 07:11:00,49.0,-99.9,30.36,South,170,19.0,23.0,-999,-99.99,,,-99.99,,2013-02-28 15:11:00,
2013-02-28 07:22:00,49.0,-99.9,30.36,South,170,20.0,23.0,-999,-99.99,,,-99.99,,2013-02-28 15:22:00,
2013-02-28 07:32:00,49.0,-99.9,30.37,SSE,163,19.0,23.0,-999,-99.99,,,-99.99,,2013-02-28 15:32:00,
2013-02-28 07:42:00,49.0,-99.9,30.37,SSE,164,20.0,23.0,-999,-99.99,,,-99.99,,2013-02-28 15:42:00,
2013-02-28 07:52:00,49.0,-99.9,30.37,SSE,162,17.0,21.0,-999,-99.99,,,-99.99,,2013-02-28 15:52:00,
2013-02-28 08:02:00,49.0,-99.9,30.37,SSE,162,16.0,20.0,-999,-99.99,,,-99.99,,2013-02-28 16:02:00,
2013-02-28 08:12:00,49.0,-99.9,30.37,SSE,164,17.0,21.0,-999,-99.99,,,-99.99,,2013-02-28 16:12:00,
2013-02-28 08:22:00,49.0,-99.9,30.37,South,170,19.0,23.0,-999,-99.99,,,-99.99,,2013-02-28 16:22:00,
2013-02-28 08:32:00,50.0,-99.9,30.38,South,179,15.0,19.0,-999,-99.99,,,-99.99,,2013-02-28 16:32:00,
2013-02-28 08:43:00,50.0,-99.9,30.39,South,178,17.0,21.0,-999,-99.99,,,-99.99,,2013-02-28 16:43:00,
2013-02-28 08:53:00,50.0,-99.9,30.39,South,178,17.0,22.0,-999,-99.99,,,-99.99,,2013-02-28 16:53:00,
2013-02-28 09:02:00,49.0,-99.9,30.40,South,177,15.0,20.0,-999,-99.99,,,-99.99,,2013-02-28 17:02:00,
2013-02-28 09:12:00,49.0,-99.9,30.40,South,173,17.0,23.0,-999,-99.99,,,-99.99,,2013-02-28 17:12:00,
2013-02-28 09:22:00,49.0,-99.9,30.40,South,176,19.0,25.0,-999,-99.99,,,-99.99,,2013-02-28 17:22:00,
2013-02-28 09:33:00,49.0,-99.9,30.40,South,172,21.0,26.0,-999,-99.99,,,-99.99,,2013-02-28 17:33:00,
2013-02-28 09:42:00,50.0,-99.9,30.40,South,170,23.0,27.0,-999,-99.99,,,-99.99,,2013-02-28 17:42:00,
2013-02-28 09:53:00,49.0,-99.9,30.41,South,175,19.0,24.0,-999,-99.99,,,-99.99,,2013-02-28 17:53:00,
2013-02-28 10:02:00,49.0,-99.9,30.42,South,173,18.0,24.0,-999,-99.99,,,-99.99,,2013-02-28 18:02:00,
2013-02-28 10:12:00,49.0,-99.9,30.42,South,172,20.0,24.0,-999,-99.99,,,-99.99,,2013-02-28 18:12:00,
2013-02-28 10:22:00,49.0,-99.9,30.43,South,175,18.0,24.0,-999,-99.99,,,-99.99,,2013-02-28 18:22:00,
2013-02-28 10:32:00,49.0,-99.9,30.43,South,172,19.0,23.0,-999,-99.99,,,-99.99,,2013-02-28 18:32:00,
2013-02-28 10:43:00,49.0,-99.9,30.43,South,169,19.0,23.0,-999,-99.99,,,-99.99,,2013-02-28 18:43:00,
2013-02-28 10:53:00,49.0,-99.9,30.43,South,170,19.0,24.0,-999,-99.99,,,-99.99,,2013-02-28 18:53:00,
2013-02-28 11:02:00,49.0,-99.9,30.43,SSE,164,20.0,24.0,-999,-99.99,,,-99.99,,2013-02-28 19:02:00,
2013-02-28 11:12:00,49.0,-99.9,30.43,SSE,163,20.0,24.0,-999,-99.99,,,-99.99,,2013-02-28 19:12:00,
2013-02-28 11:22:00,49.0,-99.9,30.43,SSE,167,20.0,25.0,-999,-99.99,,,-99.99,,2013-02-28 19:22:00,
2013-02-28 11:32:00,49.0,-99.9,30.44,South,172,18.0,23.0,-999,-99.99,,,-99.99,,2013-02-28 19:32:00,
2013-02-28 11:42:00,49.0,-99.9,30.44,South,171,18.0,24.0,-999,-99.99,,,-99.99,,2013-02-28 19:42:00,
2013-02-28 11:52:00,49.0,-99.9,30.44,South,172,19.0,22.0,-999,-99.99,,,-99.99,,2013-02-28 19:52:00,
2013-02-28 12:01:00,49.0,-99.9,30.45,South,174,19.0,23.0,-999,-99.99,,,-99.99,,2013-02-28 20:01:00,
2013-02-28 12:12:00,49.0,-99.9,30.45,South,177,18.0,22.0,-999,-99.99,,,-99.99,,2013-02-28 20:12:00,
2013-02-28 12:22:00,49.0,-99.9,30.45,South,178,18.0,22.0,-999,-99.99,,,-99.99,,2013-02-28 20:22:00,
2013-02-28 12:32:00,49.0,-99.9,30.45,South,179,18.0,22.0,-999,-99.99,,,-99.99,,2013-02-28 20:32:00,
2013-02-28 12:42:00,49.0,-99.9,30.46,South,180,18.0,21.0,-999,-99.99,,,-99.99,,2013-02-28 20:42:00,
2013-02-28 12:52:00,49.0,-99.9,30.45,South,176,19.0,22.0,-999,-99.99,,,-99.99,,2013-02-28 20:52:00,
2013-02-28 13:02:00,49.0,-99.9,30.45,South,172,18.0,21.0,-999,-99.99,,,-99.99,,2013-02-28 21:02:00,
2013-02-28 13:11:00,49.0,-99.9,30.45,South,175,17.0,22.0,-999,-99.99,,,-99.99,,2013-02-28 21:11:00,
2013-02-28 13:22:00,49.0,-99.9,30.45,South,174,18.0,21.0,-999,-99.99,,,-99.99,,2013-02-28 21:22:00,
2013-02-28 13:32:00,49.0,-99.9,30.45,South,174,18.0,23.0,-999,-99.99,,,-99.99,,2013-02-28 21:32:00,
2013-02-28 13:42:00,49.0,-99.9,30.45,South,173,17.0,21.0,-999,-99.99,,,-99.99,,2013-02-28 21:42:00,
2013-02-28 13:52:00,49.0,-99.9,30.45,South,172,17.0,21.0,-999,-99.99,,,-99.99,,2013-02-28 21:52:00,
2013-02-28 14:02:00,49.0,-99.9,30.45,SSE,167,17.0,21.0,-999,-99.99,,,-99.99,,2013-02-28 22:02:00,
2013-02-28 14:11:00,49.0,-99.9,30.45,SSE,168,17.0,20.0,-999,-99.99,,,-99.99,,2013-02-28 22:11:00,
2013-02-28 14:22:00,49.0,-99.9,30.46,SSE,168,17.0,19.0,-999,-99.99,,,-99.99,,2013-02-28 22:22:00,
2013-02-28 14:32:00,49.0,-99.9,30.46,SSE,163,15.0,18.0,-999,-99.99,,,-99.99,,2013-02-28 22:32:00,
2013-02-28 14:42:00,49.0,-99.9,30.46,SSE,161,14.0,17.0,-999,-99.99,,,-99.99,,2013-02-28 22:42:00,
2013-02-28 14:52:00,49.0,-99.9,30.46,SSE,161,15.0,18.0,-999,-99.99,,,-99.99,,2013-02-28 22:52:00,
2013-02-28 15:02:00,49.0,-99.9,30.46,SSE,161,13.0,16.0,-999,-99.99,,,-99.99,,2013-02-28 23:02:00,
2013-02-28 15:12:00,49.0,-99.9,30.47,SSE,162,13.0,16.0,-999,-99.99,,,-99.99,,2013-02-28 23:12:00,
2013-02-28 15:22:00,49.0,-99.9,30.47,SSE,161,13.0,15.0,-999,-99.99,,,-99.99,,2013-02-28 23:22:00,
2013-02-28 15:32:00,49.0,-99.9,30.47,SSE,158,12.0,16.0,-999,-99.99,,,-99.99,,2013-02-28 23:32:00,
2013-02-28 15:42:00,49.0,-99.9,30.47,SSE,161,14.0,17.0,-999,-99.99,,,-99.99,,2013-02-28 23:42:00,
2013-02-28 15:53:00,49.0,-99.9,30.47,SSE,157,13.0,15.0,-999,-99.99,,,-99.99,,2013-02-28 23:53:00,
2013-02-28 16:02:00,49.0,-99.9,30.47,SSE,156,13.0,17.0,-999,-99.99,,,-99.99,,2013-03-01 00:02:00,
2013-02-28 16:11:00,49.0,-99.9,30.47,SSE,154,11.0,14.0,-999,-99.99,,,-99.99,,2013-03-01 00:11:00,
2013-02-28 16:23:00,49.0,-99.9,30.47,SSE,157,12.0,15.0,-999,-99.99,,,-99.99,,2013-03-01 00:23:00,
2013-02-28 16:32:00,49.0,-99.9,30.48,SSE,159,12.0,14.0,-999,-99.99,,,-99.99,,2013-03-01 00:32:00,
2013-02-28 16:42:00,49.0,-99.9,30.48,SSE,156,10.0,14.0,-999,-99.99,,,-99.99,,2013-03-01 00:42:00,
2013-02-28 16:52:00,49.0,-99.9,30.48,SSE,160,12.0,14.0,-999,-99.99,,,-99.99,,2013-03-01 00:52:00,
2013-02-28 17:01:00,49.0,-99.9,30.48,SSE,161,12.0,14.0,-999,-99.99,,,-99.99,,2013-03-01 01:01:00,
2013-02-28 17:11:00,49.0,-99.9,30.48,SSE,160,11.0,13.0,-999,-99.99,,,-99.99,,2013-03-01 01:11:00,
2013-02-28 17:22:00,49.0,-99.9,30.48,SSE,154,9.0,14.0,-999,-99.99,,,-99.99,,2013-03-01 01:22:00,
2013-02-28 17:32:00,49.0,-99.9,30.48,SSE,163,11.0,14.0,-999,-99.99,,,-99.99,,2013-03-01 01:32:00,
2013-02-28 17:42:00,49.0,-99.9,30.48,SSE,154,10.0,13.0,-999,-99.99,,,-99.99,,2013-03-01 01:42:00,
2013-02-28 17:52:00,49.0,-99.9,30.48,SSE,151,10.0,12.0,-999,-99.99,,,-99.99,,2013-03-01 01:52:00,
2013-02-28 18:01:00,49.0,-99.9,30.48,SSE,151,9.0,12.0,-999,-99.99,,,-99.99,,2013-03-01 02:01:00,
2013-02-28 18:11:00,49.0,-99.9,30.48,SSE,151,9.0,13.0,-999,-99.99,,,-99.99,,2013-03-01 02:11:00,
2013-02-28 18:22:00,49.0,-99.9,30.48,SSE,151,10.0,13.0,-999,-99.99,,,-99.99,,2013-03-01 02:22:00,
2013-02-28 18:32:00,49.0,-99.9,30.48,SSE,156,9.0,12.0,-999,-99.99,,,-99.99,,2013-03-01 02:32:00,
2013-02-28 18:42:00,49.0,-99.9,30.49,SSE,154,9.0,12.0,-999,-99.99,,,-99.99,,2013-03-01 02:42:00,
2013-02-28 18:52:00,50.0,-99.9,30.49,SSE,152,9.0,12.0,-999,-99.99,,,-99.99,,2013-03-01 02:52:00,
2013-02-28 19:02:00,50.0,-99.9,30.49,SSE,155,11.0,13.0,-999,-99.99,,,-99.99,,2013-03-01 03:02:00,
2013-02-28 19:12:00,50.0,-99.9,30.49,SSE,162,11.0,13.0,-999,-99.99,,,-99.99,,2013-03-01 03:12:00,
2013-02-28 19:22:00,50.0,-99.9,30.49,SSE,159,10.0,12.0,-999,-99.99,,,-99.99,,2013-03-01 03:22:00,
2013-02-28 19:32:00,50.0,-99.9,30.49,SSE,155,11.0,16.0,-999,-99.99,,,-99.99,,2013-03-01 03:32:00,
2013-02-28 19:42:00,50.0,-99.9,30.49,SSE,159,13.0,15.0,-999,-99.99,,,-99.99,,2013-03-01 03:42:00,
2013-02-28 19:52:00,50.0,-99.9,30.50,SSE,153,11.0,16.0,-999,-99.99,,,-99.99,,2013-03-01 03:52:00,
2013-02-28 20:02:00,50.0,-99.9,30.50,SSE,155,12.0,15.0,-999,-99.99,,,-99.99,,2013-03-01 04:02:00,
2013-02-28 20:12:00,50.0,-99.9,30.50,SSE,152,11.0,15.0,-999,-99.99,,,-99.99,,2013-03-01 04:12:00,
2013-02-28 20:22:00,50.0,-99.9,30.50,SSE,161,12.0,15.0,-999,-99.99,,,-99.99,,2013-03-01 04:22:00,
2013-02-28 20:32:00,50.0,-99.9,30.50,SSE,168,15.0,19.0,-999,-99.99,,,-99.99,,2013-03-01 04:32:00,
2013-02-28 20:42:00,50.0,-99.9,30.51,SSE,155,9.0,12.0,-999,-99.99,,,-99.99,,2013-03-01 04:42:00,
2013-02-28 20:52:00,50.0,-99.9,30.51,SSE,160,9.0,12.0,-999,-99.99,,,-99.99,,2013-03-01 04:52:00,
2013-02-28 21:02:00,50.0,-99.9,30.51,SSE,161,10.0,12.0,-999,-99.99,,,-99.99,,2013-03-01 05:02:00,
2013-02-28 21:11:00,50.0,-99.9,30.51,SSE,159,10.0,15.0,-999,-99.99,,,-99.99,,2013-03-01 05:11:00,
2013-02-28 21:22:00,50.0,-99.9,30.52,SSE,160,11.0,12.0,-999,-99.99,,,-99.99,,2013-03-01 05:22:00,
2013-02-28 21:33:00,50.0,-99.9,30.52,SSE,166,10.0,12.0,-999,-99.99,,,-99.99,,2013-03-01 05:33:00,
2013-02-28 21:42:00,50.0,-99.9,30.52,SSE,166,11.0,13.0,-999,-99.99,,,-99.99,,2013-03-01 05:42:00,
2013-02-28 21:53:00,50.0,-99.9,30.52,South,169,13.0,16.0,-999,-99.99,,,-99.99,,2013-03-01 05:53:00,
2013-02-28 22:02:00,50.0,-99.9,30.53,SSE,167,12.0,16.0,-999,-99.99,,,-99.99,,2013-03-01 06:02:00,
2013-02-28 22:12:00,50.0,-99.9,30.53,SSE,168,12.0,14.0,-999,-99.99,,,-99.99,,2013-03-01 06:12:00,
2013-02-28 22:22:00,50.0,-99.9,30.53,SSE,167,12.0,15.0,-999,-99.99,,,-99.99,,2013-03-01 06:22:00,
2013-02-28 22:32:00,50.0,-99.9,30.53,SSE,164,11.0,14.0,-999,-99.99,,,-99.99,,2013-03-01 06:32:00,
2013-02-28 22:43:00,50.0,-99.9,30.53,SSE,159,12.0,14.0,-999,-99.99,,,-99.99,,2013-03-01 06:43:00,
2013-02-28 22:53:00,50.0,-99.9,30.53,SSE,160,13.0,16.0,-999,-99.99,,,-99.99,,2013-03-01 06:53:00,
2013-02-28 23:02:00,50.0,-99.9,30.53,SSE,160,11.0,13.0,-999,-99.99,,,-99.99,,2013-03-01 07:02:00,
2013-02-28 23:12:00,50.0,-99.9,30.53,SSE,158,11.0,13.0,-999,-99.99,,,-99.99,,2013-03-01 07:12:00,
2013-02-28 23:22:00,50.0,-99.9,30.53,SSE,164,13.0,15.0,-999,-99.99,,,-99.99,,2013-03-01 07:22:00,
2013-02-28 23:33:00,50.0,-99.9,30.53,South,170,12.0,14.0,-999,-99.99,,,-99.99,,2013-03-01 07:33:00,
2013-02-28 23:42:00,50.0,-99.9,30.53,South,171,11.0,13.0,-999,-99.99,,,-99.99,,2013-03-01 07:42:00,
2013-02-28 23:52:00,49.0,-99.9,30.53,SSE,154,11.0,13.0,-999,-99.99,,,-99.99,,2013-03-01 07:52:00,